AirNav   Air Wisconsin Up To $57,000 Bonus
 
 1742 users online  

NH62 Millipore Heliport
Jaffrey, New Hampshire, USA

GOING TO JAFFREY?


FAA INFORMATION EFFECTIVE 02 JANUARY 2020

Location

FAA Identifier: NH62
Lat/Long: 42-47-55.3040N 071-58-58.2860W
42-47.921733N 071-58.971433W
42.7986956,-71.9828572
(estimated)
Elevation: 1132 ft. / 345 m (estimated)
Variation: 15W (1985)
From city: 2 miles SSE of JAFFREY, NH
Time zone: UTC -5 (UTC -4 during Daylight Saving Time)
Zip code: 03452

Heliport Operations

Heliport use: Private use. Permission required prior to landing
Activation date: 06/1991
Control tower: no
ARTCC: BOSTON CENTER
FSS: BURLINGTON FLIGHT SERVICE STATION
Attendance: UNATNDD
Segmented circle: no

Heliport Communications

WX ASOS at AFN (1.0 nm NW): 135.875 (603-532-6195)
WX AWOS-3PT at EEN (14 nm NW): 119.025 (603-358-6424)
WX ASOS at FIT (18 nm SE): 135.175 (978-343-9121)
WX ASOS at ORE (19 nm SW): 135.675 (978-544-6774)

Nearby radio navigation aids

VOR radial/distance  VOR name  Freq  Var
EENr103/13.6KEENE VORTAC109.4014W
GDMr026/15.5GARDNER VOR/DME110.6014W
MHTr276/27.3MANCHESTER VOR/DME114.4015W
CONr230/30.9CONCORD VOR/DME112.9015W
LWMr290/39.3LAWRENCE VOR/DME112.5015W

 
NDB name  Hdg/Dist  Freq  Var  ID
CLAREMONT170/38.223316WCNH -.-. -. ....

Heliport Services

Runway Information

Helipad H1

Dimensions: 33 x 25 ft. / 10 x 8 m
Surface: concrete
Traffic pattern: leftleft

Heliport Ownership and Management from official FAA records

Ownership: Privately-owned
Owner: MILLIPORE CORPORATION
80 ASHBY ROAD
BEDFORD, MA 01730
Phone 617-275-9200
EXT 2276.
Manager: GEOFFREY NUNES
80 ASHBY ROAD
BEDFORD, MA 01730
Phone 617-275-9200

Additional Remarks

FOR CD CTC BOSTON ARTCC AT 603-879-6859.

Instrument Procedures

There are no published instrument procedures at NH62.

Some nearby airports with instrument procedures:

KAFN - Jaffrey Airport-Silver Ranch (1 nm NW)
KEEN - Dillant-Hopkins Airport (14 nm NW)
KGDM - Gardner Municipal Airport (15 nm S)
KFIT - Fitchburg Municipal Airport (18 nm SE)
KORE - Orange Municipal Airport (19 nm SW)
 
Loc | Ops | Rwys | IFR | FBO | Links
Com | Nav | Svcs | Stats | Notes
Area around NH62 (Millipore Heliport)
 
Road maps at: MapQuest Bing Google
 
Aerial photo
No photo
 
Sectional chart

 
Airport distance calculator
Flying to Millipore Heliport? Find the distance to fly.

From to NH62

Sunrise and sunset
Times for 22-Jan-2020
 Local
(UTC-5)
 Zulu
(UTC)
Morning civil twilight06:4211:42
Sunrise07:1312:13
Sunset16:4721:47
Evening civil twilight17:1722:17

Current date and time
Zulu (UTC)  22-Jan-2020 19:52:46
Local (UTC-5)  22-Jan-2020 14:52:46
 
METAR
KAFN 221852Z AUTO VRB04KT 10SM CLR 00/M09 A3032 RMK AO2 SLP291 T00001094
KEEN 
13nm W 
221856Z AUTO 00000KT 10SM CLR M01/M09 A3036 RMK AO2 SLP294 T10061089 FZRANO $
KFIT 
18nm SE 
221852Z AUTO 29006KT 10SM CLR 01/M09 A3036 RMK AO2 SLP287 T00111089
KORE 
19nm SW 
221852Z AUTO 14003KT 10SM CLR 01/M09 A3037 RMK AO2 SLP294 T00061094
TAF
KMHT 
25nm E 
221720Z 2218/2318 VRB03KT P6SM SCT250
NOTAMs
Click for the latest NOTAMs
NOTAMs are issued by the DoD/FAA and will open in a separate window not controlled by AirNav.

 

 
 

Would you like to see your business listed on this page?

 If your business provides an interesting product or service to pilots, flight crews, aircraft, or users of the Millipore Heliport, you should consider listing it here.  To start the listing process, click on the button below
 
Add a business
 

Other Pages about Millipore Heliport

Update a link
 
Copyright © AirNav, LLC. All rights reserved. Privacy Policy  Contact